Time;durP1;ratioP1;P1;durP2;ratioP2;P2;SDS_P1;SDS_P2;PMS_P1;PMS_P2;Temp;Humidity;BMP_temperature;BMP_pressure;BME280_temperature;BME280_humidity;BME280_pressure;Samples;Min_cycle;Max_cycle;Signal;HPM_P1;HPM_P2
2020/12/22 00:01:30;;;;;;;3.92;2.35;;;;;;;;;;5046369;28;20548;-79
2020/12/22 00:04:16;;;;;;;3.22;2.20;;;;;;;;;;5028679;28;554340;-79
2020/12/22 00:07:01;;;;;;;4.45;2.22;;;;;;;;;;5046892;28;20379;-79
2020/12/22 00:09:46;;;;;;;3.42;2.28;;;;;;;;;;5045800;28;20153;-79
2020/12/22 00:12:32;;;;;;;3.40;2.30;;;;;;;;;;5047653;28;20151;-78
2020/12/22 00:15:17;;;;;;;2.95;2.08;;;;;;;;;;5042488;28;20029;-79
2020/12/22 00:18:02;;;;;;;3.08;1.95;;;;;;;;;;5050701;28;20422;-79
2020/12/22 00:20:47;;;;;;;3.40;2.38;;;;;;;;;;5053593;28;20028;-78
2020/12/22 00:23:33;;;;;;;3.20;2.38;;;;;;;;;;5037428;28;20425;-78
2020/12/22 00:26:18;;;;;;;2.67;1.90;;;;;;;;;;5047768;28;20033;-79
2020/12/22 00:29:03;;;;;;;3.80;2.30;;;;;;;;;;5044799;28;20075;-79
2020/12/22 00:31:48;;;;;;;3.30;2.33;;;;;;;;;;5046178;28;20024;-78
2020/12/22 00:34:33;;;;;;;3.58;2.17;;;;;;;;;;5042941;28;20459;-79
2020/12/22 00:37:19;;;;;;;2.55;1.88;;;;;;;;;;5048060;28;20025;-80
2020/12/22 00:40:04;;;;;;;3.75;2.33;;;;;;;;;;5042953;28;20024;-78
2020/12/22 00:42:50;;;;;;;4.07;2.22;;;;;;;;;;5043336;28;20025;-80
2020/12/22 00:45:35;;;;;;;3.20;2.47;;;;;;;;;;5044145;28;20024;-79
2020/12/22 00:48:20;;;;;;;3.03;2.03;;;;;;;;;;5041185;28;20475;-80
2020/12/22 00:51:06;;;;;;;3.60;1.95;;;;;;;;;;5043380;28;20036;-79
2020/12/22 00:53:51;;;;;;;3.38;1.83;;;;;;;;;;5048818;28;20028;-79
2020/12/22 00:56:36;;;;;;;2.45;1.77;;;;;;;;;;5047944;28;20104;-79
2020/12/22 00:59:21;;;;;;;2.15;1.67;;;;;;;;;;5037943;28;20024;-78
2020/12/22 01:02:07;;;;;;;3.33;1.90;;;;;;;;;;5046492;28;20051;-78
2020/12/22 01:04:52;;;;;;;3.78;1.80;;;;;;;;;;5048013;28;20132;-78
2020/12/22 01:07:38;;;;;;;1.83;1.63;;;;;;;;;;5037039;28;20055;-78
2020/12/22 01:10:23;;;;;;;2.35;1.83;;;;;;;;;;5046354;28;20086;-78
2020/12/22 01:13:08;;;;;;;3.35;1.63;;;;;;;;;;5045465;28;20078;-78
2020/12/22 01:15:54;;;;;;;3.67;1.55;;;;;;;;;;5048258;28;20034;-79
2020/12/22 01:18:39;;;;;;;1.95;1.60;;;;;;;;;;5052003;28;20399;-79
2020/12/22 01:21:24;;;;;;;3.13;1.90;;;;;;;;;;5049577;28;20031;-78
2020/12/22 01:24:09;;;;;;;1.58;1.45;;;;;;;;;;5049329;28;20372;-79
2020/12/22 01:26:55;;;;;;;4.35;1.38;;;;;;;;;;5029683;28;20021;-78
2020/12/22 01:29:40;;;;;;;2.20;1.52;;;;;;;;;;5046846;28;20638;-78
2020/12/22 01:32:26;;;;;;;1.67;1.23;;;;;;;;;;5043722;28;20020;-79
2020/12/22 01:35:11;;;;;;;2.08;1.45;;;;;;;;;;5041922;28;20021;-79
2020/12/22 01:37:56;;;;;;;3.78;1.40;;;;;;;;;;5051191;28;20020;-80
2020/12/22 01:40:47;;;;;;;1.35;0.95;;;;;;;;;;5053615;28;20031;-78
2020/12/22 01:43:32;;;;;;;1.92;0.90;;;;;;;;;;5049392;28;20032;-79
2020/12/22 01:46:18;;;;;;;3.10;1.45;;;;;;;;;;5036737;28;21962;-79
2020/12/22 01:49:04;;;;;;;2.55;1.20;;;;;;;;;;5047630;28;20032;-78
2020/12/22 01:51:50;;;;;;;3.03;1.10;;;;;;;;;;5043295;28;20021;-79
2020/12/22 01:54:36;;;;;;;5.10;1.20;;;;;;;;;;5047530;28;20402;-78
2020/12/22 01:57:21;;;;;;;1.90;1.15;;;;;;;;;;5047954;28;20029;-79
2020/12/22 02:00:07;;;;;;;1.73;1.10;;;;;;;;;;5044787;28;20048;-79
2020/12/22 02:02:52;;;;;;;2.00;1.00;;;;;;;;;;5040720;28;20028;-79
2020/12/22 02:05:38;;;;;;;2.15;1.05;;;;;;;;;;5043454;28;20040;-79
2020/12/22 02:08:23;;;;;;;3.47;1.20;;;;;;;;;;5049468;28;20048;-79
2020/12/22 02:11:08;;;;;;;2.65;1.17;;;;;;;;;;5048444;28;20036;-79
2020/12/22 02:13:53;;;;;;;1.48;1.00;;;;;;;;;;5041922;28;20024;-78
2020/12/22 02:16:39;;;;;;;2.40;1.15;;;;;;;;;;5044410;28;20035;-79
2020/12/22 02:19:25;;;;;;;1.52;0.80;;;;;;;;;;5048958;28;20036;-79
2020/12/22 02:22:10;;;;;;;1.08;0.70;;;;;;;;;;5043651;28;20582;-78
2020/12/22 02:24:56;;;;;;;0.73;0.60;;;;;;;;;;5043608;28;20270;-78
2020/12/22 02:27:41;;;;;;;0.52;0.50;;;;;;;;;;5047668;28;20028;-79
2020/12/22 02:30:26;;;;;;;0.40;0.40;;;;;;;;;;5046043;28;20028;-79
2020/12/22 02:33:12;;;;;;;0.50;0.50;;;;;;;;;;5044402;28;20031;-79
2020/12/22 02:35:58;;;;;;;0.50;0.50;;;;;;;;;;5051278;28;20017;-79
2020/12/22 02:38:43;;;;;;;0.50;0.50;;;;;;;;;;5051310;28;20307;-79
2020/12/22 02:41:29;;;;;;;1.40;0.70;;;;;;;;;;5046999;28;20040;-79
2020/12/22 02:44:14;;;;;;;1.48;0.50;;;;;;;;;;5041914;28;20035;-78
2020/12/22 02:46:59;;;;;;;0.70;0.70;;;;;;;;;;5049632;28;20488;-78
2020/12/22 02:49:44;;;;;;;0.50;0.50;;;;;;;;;;5042052;28;20032;-78
2020/12/22 02:52:29;;;;;;;0.60;0.60;;;;;;;;;;5040389;28;20043;-78
2020/12/22 02:55:15;;;;;;;1.75;0.65;;;;;;;;;;5047533;28;20082;-78
2020/12/22 02:58:00;;;;;;;0.50;0.50;;;;;;;;;;5044789;28;20024;-79
2020/12/22 03:00:45;;;;;;;0.52;0.40;;;;;;;;;;5048605;28;20027;-78
2020/12/22 03:03:30;;;;;;;0.70;0.50;;;;;;;;;;5048220;28;20094;-79
2020/12/22 03:06:16;;;;;;;2.53;0.50;;;;;;;;;;5048439;28;20085;-79
2020/12/22 03:09:01;;;;;;;0.68;0.40;;;;;;;;;;5051861;28;20514;-79
2020/12/22 03:11:46;;;;;;;0.60;0.50;;;;;;;;;;5053475;28;20593;-79
2020/12/22 03:14:31;;;;;;;0.93;0.65;;;;;;;;;;5045984;28;20388;-80
2020/12/22 03:17:16;;;;;;;0.50;0.50;;;;;;;;;;5047733;28;20043;-80
2020/12/22 03:20:03;;;;;;;0.85;0.50;;;;;;;;;;5044404;28;20532;-80
2020/12/22 03:22:51;;;;;;;1.50;0.45;;;;;;;;;;5046711;28;20466;-79
2020/12/22 03:25:36;;;;;;;0.60;0.45;;;;;;;;;;5049940;28;20020;-78
2020/12/22 03:28:21;;;;;;;0.57;0.55;;;;;;;;;;5050764;28;20021;-78
2020/12/22 03:31:06;;;;;;;0.47;0.47;;;;;;;;;;5040889;28;20471;-78
2020/12/22 03:33:51;;;;;;;0.80;0.40;;;;;;;;;;5050817;28;20556;-78
2020/12/22 03:36:37;;;;;;;1.73;0.60;;;;;;;;;;5047868;28;20363;-78
2020/12/22 03:39:22;;;;;;;0.40;0.40;;;;;;;;;;5044729;28;20070;-79
2020/12/22 03:42:07;;;;;;;1.05;0.50;;;;;;;;;;5048656;28;20017;-78
2020/12/22 03:44:52;;;;;;;0.50;0.50;;;;;;;;;;5051091;28;20023;-79
2020/12/22 03:47:37;;;;;;;3.55;0.50;;;;;;;;;;5050751;28;20032;-79
2020/12/22 03:50:23;;;;;;;1.77;0.57;;;;;;;;;;5046795;28;20036;-79
2020/12/22 03:53:08;;;;;;;0.77;0.50;;;;;;;;;;5047254;28;20028;-79
2020/12/22 03:55:53;;;;;;;0.35;0.35;;;;;;;;;;5050209;28;20043;-79
2020/12/22 03:58:39;;;;;;;0.50;0.50;;;;;;;;;;5053062;28;20429;-79
2020/12/22 04:01:24;;;;;;;0.40;0.40;;;;;;;;;;5046207;28;20029;-79
2020/12/22 04:07:20;;;;;;;0.40;0.40;;;;;;;;;;5059942;28;20032;-79
2020/12/22 04:10:06;;;;;;;1.48;0.40;;;;;;;;;;5044425;28;20033;-78
2020/12/22 04:12:51;;;;;;;0.50;0.40;;;;;;;;;;5047365;28;20322;-78
2020/12/22 04:15:37;;;;;;;1.20;0.70;;;;;;;;;;5051130;28;20505;-78
2020/12/22 04:18:22;;;;;;;0.63;0.40;;;;;;;;;;5044503;28;20028;-78
2020/12/22 04:21:07;;;;;;;1.73;0.50;;;;;;;;;;5045625;28;20103;-80
2020/12/22 04:23:53;;;;;;;0.50;0.50;;;;;;;;;;5048396;28;20120;-80
2020/12/22 04:26:38;;;;;;;0.50;0.50;;;;;;;;;;5047073;28;20028;-79
2020/12/22 04:29:23;;;;;;;0.85;0.40;;;;;;;;;;5047656;28;20574;-79
2020/12/22 04:32:08;;;;;;;0.45;0.40;;;;;;;;;;5048939;28;20090;-80
2020/12/22 04:34:54;;;;;;;0.68;0.57;;;;;;;;;;5046748;28;20020;-80
2020/12/22 04:37:39;;;;;;;0.50;0.50;;;;;;;;;;5045830;28;20020;-79
2020/12/22 04:40:24;;;;;;;0.45;0.40;;;;;;;;;;5047373;28;20021;-79
2020/12/22 04:43:10;;;;;;;0.40;0.40;;;;;;;;;;5027153;28;20565;-79
2020/12/22 04:46:00;;;;;;;0.40;0.40;;;;;;;;;;5045925;28;20055;-79
2020/12/22 04:48:49;;;;;;;0.75;0.40;;;;;;;;;;5043838;28;20077;-79
2020/12/22 04:51:36;;;;;;;1.05;0.40;;;;;;;;;;5051214;28;20036;-80
2020/12/22 04:54:22;;;;;;;0.52;0.40;;;;;;;;;;5044937;28;20530;-79
2020/12/22 04:57:07;;;;;;;1.35;0.43;;;;;;;;;;5044496;28;20032;-78
2020/12/22 04:59:53;;;;;;;0.60;0.60;;;;;;;;;;5044641;28;20024;-79
2020/12/22 05:02:40;;;;;;;0.57;0.50;;;;;;;;;;5051464;28;20103;-78
2020/12/22 05:05:26;;;;;;;0.50;0.50;;;;;;;;;;5044849;28;20123;-79
2020/12/22 05:08:11;;;;;;;0.70;0.47;;;;;;;;;;5051063;28;20141;-80
2020/12/22 05:10:59;;;;;;;1.05;0.70;;;;;;;;;;5043271;28;20016;-78
2020/12/22 05:13:47;;;;;;;0.60;0.60;;;;;;;;;;5044968;28;20025;-79
2020/12/22 05:16:36;;;;;;;0.90;0.55;;;;;;;;;;5044241;28;20064;-79
2020/12/22 05:19:22;;;;;;;0.50;0.50;;;;;;;;;;5044017;28;20035;-79
2020/12/22 05:22:07;;;;;;;0.75;0.68;;;;;;;;;;5044336;28;20060;-79
2020/12/22 05:24:53;;;;;;;0.98;0.60;;;;;;;;;;5042974;28;20028;-79
2020/12/22 05:27:38;;;;;;;0.40;0.40;;;;;;;;;;5043200;28;20094;-80
2020/12/22 05:30:23;;;;;;;1.13;0.63;;;;;;;;;;5044085;28;20024;-80
2020/12/22 05:33:09;;;;;;;1.25;0.50;;;;;;;;;;5048994;28;20024;-79
2020/12/22 05:35:56;;;;;;;1.50;0.70;;;;;;;;;;5047224;28;20029;-80
2020/12/22 05:38:43;;;;;;;0.73;0.57;;;;;;;;;;5047312;28;20028;-79
2020/12/22 05:41:28;;;;;;;0.93;0.50;;;;;;;;;;5044608;28;20048;-78
2020/12/22 05:44:13;;;;;;;0.57;0.50;;;;;;;;;;5050133;28;20095;-80
2020/12/22 05:46:59;;;;;;;0.40;0.40;;;;;;;;;;5044581;28;20052;-79
2020/12/22 05:49:57;;;;;;;0.47;0.47;;;;;;;;;;5052457;28;20036;-79
2020/12/22 05:52:42;;;;;;;3.33;0.70;;;;;;;;;;5042547;28;20025;-79
2020/12/22 05:55:29;;;;;;;0.95;0.50;;;;;;;;;;5039558;28;20375;-80
2020/12/22 05:58:28;;;;;;;1.40;0.60;;;;;;;;;;5063513;28;20406;-80
2020/12/22 06:01:14;;;;;;;2.88;0.68;;;;;;;;;;5049758;28;20024;-79
2020/12/22 06:04:03;;;;;;;0.60;0.60;;;;;;;;;;5047682;28;20029;-79
2020/12/22 06:06:50;;;;;;;0.40;0.40;;;;;;;;;;5048918;28;20029;-79
2020/12/22 06:09:36;;;;;;;0.98;0.60;;;;;;;;;;5049384;28;20133;-79
2020/12/22 06:12:22;;;;;;;0.40;0.40;;;;;;;;;;5048868;28;20296;-79
2020/12/22 06:15:08;;;;;;;0.63;0.52;;;;;;;;;;5047158;28;20479;-78
2020/12/22 06:17:53;;;;;;;2.65;0.70;;;;;;;;;;5044261;28;20261;-79
2020/12/22 06:20:38;;;;;;;1.90;0.52;;;;;;;;;;5044739;28;20021;-81
2020/12/22 06:23:24;;;;;;;0.50;0.50;;;;;;;;;;5040590;28;20111;-78
2020/12/22 06:26:10;;;;;;;2.17;0.50;;;;;;;;;;5044740;28;20035;-79
2020/12/22 06:28:55;;;;;;;1.00;0.82;;;;;;;;;;5048681;28;20542;-80
2020/12/22 06:31:40;;;;;;;18.77;10.02;;;;;;;;;;5048164;28;20031;-78
2020/12/22 06:34:26;;;;;;;2.63;1.10;;;;;;;;;;5049445;28;20048;-78
2020/12/22 06:37:11;;;;;;;0.50;0.50;;;;;;;;;;5048064;28;20060;-78
2020/12/22 06:39:59;;;;;;;2.10;0.65;;;;;;;;;;5052509;28;20064;-79
2020/12/22 06:42:46;;;;;;;0.55;0.55;;;;;;;;;;5045189;28;20257;-79
2020/12/22 06:45:35;;;;;;;2.20;0.70;;;;;;;;;;5051939;28;20020;-79
2020/12/22 06:48:24;;;;;;;1.35;0.52;;;;;;;;;;5049500;28;20032;-79
2020/12/22 06:51:29;;;;;;;2.22;0.70;;;;;;;;;;5047659;28;20516;-80
2020/12/22 06:54:14;;;;;;;1.02;0.60;;;;;;;;;;5046892;28;20032;-80
2020/12/22 06:57:00;;;;;;;0.73;0.70;;;;;;;;;;5051209;28;20016;-80
2020/12/22 06:59:47;;;;;;;2.17;0.50;;;;;;;;;;5046711;28;20383;-80
2020/12/22 07:02:36;;;;;;;1.25;0.60;;;;;;;;;;5046733;28;20094;-79
2020/12/22 07:05:35;;;;;;;0.55;0.47;;;;;;;;;;5046812;28;20453;-80
2020/12/22 07:08:21;;;;;;;2.70;0.60;;;;;;;;;;5048027;28;20027;-80
2020/12/22 07:11:19;;;;;;;0.93;0.63;;;;;;;;;;5047254;28;20034;-81
2020/12/22 07:14:05;;;;;;;1.05;0.60;;;;;;;;;;5045472;28;20063;-80
2020/12/22 07:16:52;;;;;;;2.00;0.60;;;;;;;;;;5049016;28;20021;-79
2020/12/22 07:19:37;;;;;;;1.40;0.60;;;;;;;;;;5049586;28;20017;-80
2020/12/22 07:22:23;;;;;;;1.25;0.60;;;;;;;;;;5051200;28;20075;-79
2020/12/22 07:25:08;;;;;;;3.05;0.75;;;;;;;;;;5044706;28;20474;-79
2020/12/22 07:27:54;;;;;;;0.75;0.55;;;;;;;;;;5050151;28;20036;-79
2020/12/22 07:30:42;;;;;;;7.57;4.30;;;;;;;;;;5046462;28;20048;-78
2020/12/22 07:33:27;;;;;;;3.28;2.08;;;;;;;;;;5047545;28;20033;-80
2020/12/22 07:36:15;;;;;;;0.75;0.70;;;;;;;;;;5048369;28;20052;-78
2020/12/22 07:39:14;;;;;;;0.70;0.50;;;;;;;;;;5052704;28;20024;-77
2020/12/22 07:42:10;;;;;;;1.23;0.70;;;;;;;;;;5050812;28;20024;-78
2020/12/22 07:45:03;;;;;;;0.70;0.70;;;;;;;;;;5042761;28;20020;-79
2020/12/22 07:47:48;;;;;;;0.90;0.60;;;;;;;;;;5049746;28;20056;-77
2020/12/22 07:50:36;;;;;;;1.02;0.50;;;;;;;;;;5030546;28;20035;-78
2020/12/22 07:53:22;;;;;;;1.83;0.57;;;;;;;;;;5046663;28;20021;-78
2020/12/22 07:56:07;;;;;;;0.60;0.60;;;;;;;;;;5044599;28;20028;-78
2020/12/22 07:58:53;;;;;;;0.70;0.50;;;;;;;;;;5048784;28;20028;-78
2020/12/22 08:01:38;;;;;;;0.60;0.60;;;;;;;;;;5050746;28;20492;-78
2020/12/22 08:04:24;;;;;;;1.80;1.10;;;;;;;;;;5050346;28;20044;-78
2020/12/22 08:07:09;;;;;;;0.82;0.60;;;;;;;;;;5042488;28;20021;-82
2020/12/22 08:09:54;;;;;;;0.85;0.60;;;;;;;;;;5047607;28;20024;-81
2020/12/22 08:13:01;;;;;;;0.88;0.63;;;;;;;;;;5046185;28;20021;-80
2020/12/22 08:15:49;;;;;;;5.28;2.70;;;;;;;;;;5046018;28;21129;-81
2020/12/22 08:18:34;;;;;;;0.60;0.60;;;;;;;;;;5049674;28;20056;-81
2020/12/22 08:21:20;;;;;;;1.15;0.65;;;;;;;;;;5049434;28;20032;-81
2020/12/22 08:24:05;;;;;;;9.07;1.13;;;;;;;;;;5045215;28;20586;-82
2020/12/22 08:26:51;;;;;;;1.63;0.65;;;;;;;;;;5044255;28;20029;-81
2020/12/22 08:29:38;;;;;;;1.13;0.70;;;;;;;;;;5046061;28;20834;-81
2020/12/22 08:32:27;;;;;;;0.60;0.60;;;;;;;;;;5044156;28;20280;-81
2020/12/22 08:35:18;;;;;;;0.88;0.82;;;;;;;;;;5047486;28;20020;-80
2020/12/22 08:38:04;;;;;;;1.00;0.65;;;;;;;;;;5045599;28;20035;-80
2020/12/22 08:40:50;;;;;;;0.50;0.50;;;;;;;;;;5053193;28;20020;-80
2020/12/22 08:43:35;;;;;;;3.97;0.60;;;;;;;;;;5041489;28;20368;-80
2020/12/22 08:46:20;;;;;;;2.55;0.60;;;;;;;;;;5044502;28;20032;-80
2020/12/22 08:49:06;;;;;;;1.15;0.60;;;;;;;;;;5048898;28;20032;-80
2020/12/22 08:51:56;;;;;;;1.50;0.70;;;;;;;;;;5053073;28;20437;-80
2020/12/22 08:54:42;;;;;;;2.22;0.60;;;;;;;;;;5046041;28;20069;-80
2020/12/22 08:57:29;;;;;;;1.70;0.73;;;;;;;;;;5044595;28;20029;-80
2020/12/22 09:00:16;;;;;;;1.08;0.75;;;;;;;;;;5049445;28;20035;-81
2020/12/22 09:03:02;;;;;;;1.70;0.80;;;;;;;;;;5044505;28;20019;-80
2020/12/22 09:05:50;;;;;;;1.05;0.70;;;;;;;;;;5043149;28;20079;-80
2020/12/22 09:08:35;;;;;;;1.92;0.65;;;;;;;;;;5049235;28;20382;-80
2020/12/22 09:11:21;;;;;;;0.70;0.70;;;;;;;;;;5045855;28;20538;-80
2020/12/22 09:14:16;;;;;;;1.17;0.60;;;;;;;;;;5042576;28;20058;-79
2020/12/22 09:17:01;;;;;;;0.63;0.57;;;;;;;;;;5052782;28;20066;-80
2020/12/22 09:19:50;;;;;;;2.05;0.95;;;;;;;;;;5030288;28;20054;-81
2020/12/22 09:22:36;;;;;;;3.80;2.55;;;;;;;;;;5053031;28;20115;-81
2020/12/22 09:25:21;;;;;;;1.17;0.50;;;;;;;;;;5047993;28;20386;-81
2020/12/22 09:28:07;;;;;;;1.52;0.40;;;;;;;;;;5053202;28;20020;-81
2020/12/22 09:30:52;;;;;;;0.40;0.40;;;;;;;;;;5053165;28;20111;-81
2020/12/22 09:33:37;;;;;;;3.05;0.90;;;;;;;;;;5048564;28;20016;-82
2020/12/22 09:36:22;;;;;;;0.65;0.60;;;;;;;;;;5050575;28;20025;-82
2020/12/22 09:39:08;;;;;;;0.95;0.68;;;;;;;;;;5048279;28;20078;-81
2020/12/22 09:41:54;;;;;;;0.60;0.60;;;;;;;;;;5043166;28;20028;-82
2020/12/22 09:44:39;;;;;;;0.75;0.65;;;;;;;;;;5048288;28;20020;-82
2020/12/22 09:47:24;;;;;;;2.08;0.60;;;;;;;;;;5043862;28;20021;-81
2020/12/22 09:50:09;;;;;;;3.20;0.80;;;;;;;;;;5042595;28;20090;-81
2020/12/22 09:52:54;;;;;;;0.70;0.70;;;;;;;;;;5053157;28;20502;-82
2020/12/22 09:55:40;;;;;;;5.97;3.53;;;;;;;;;;5047684;28;20185;-81
2020/12/22 09:58:25;;;;;;;3.30;1.38;;;;;;;;;;5045771;28;20536;-82
2020/12/22 10:01:10;;;;;;;1.35;0.85;;;;;;;;;;5044183;28;20523;-82
2020/12/22 10:03:55;;;;;;;1.08;0.88;;;;;;;;;;5053756;28;20106;-82
2020/12/22 10:06:40;;;;;;;1.35;0.77;;;;;;;;;;5046408;28;20021;-82
2020/12/22 10:09:26;;;;;;;0.60;0.60;;;;;;;;;;5055650;28;20066;-81
2020/12/22 10:12:11;;;;;;;1.30;0.82;;;;;;;;;;5053104;28;20450;-82
2020/12/22 10:14:56;;;;;;;1.15;0.75;;;;;;;;;;5042020;28;20499;-82
2020/12/22 10:17:41;;;;;;;1.15;0.70;;;;;;;;;;5050701;28;20032;-81
2020/12/22 10:20:26;;;;;;;1.08;0.80;;;;;;;;;;5050214;28;20046;-82
2020/12/22 10:23:12;;;;;;;1.25;0.82;;;;;;;;;;5051910;28;20165;-81
2020/12/22 10:25:57;;;;;;;2.20;0.98;;;;;;;;;;5051793;28;20028;-81
2020/12/22 10:28:43;;;;;;;0.85;0.80;;;;;;;;;;5049622;28;20029;-81
2020/12/22 10:31:28;;;;;;;0.60;0.60;;;;;;;;;;5049569;28;20036;-82
2020/12/22 10:34:13;;;;;;;0.93;0.60;;;;;;;;;;5045218;28;20035;-81
2020/12/22 10:36:58;;;;;;;0.70;0.60;;;;;;;;;;5050910;28;20032;-81
2020/12/22 10:39:48;;;;;;;1.05;0.75;;;;;;;;;;5049859;28;20148;-81
2020/12/22 10:42:33;;;;;;;1.42;0.65;;;;;;;;;;5055145;28;20032;-81
2020/12/22 10:45:21;;;;;;;0.82;0.70;;;;;;;;;;5055335;28;20035;-81
2020/12/22 10:48:07;;;;;;;0.60;0.60;;;;;;;;;;5058724;28;20025;-81
2020/12/22 10:50:53;;;;;;;3.00;0.70;;;;;;;;;;5067083;28;20028;-80
2020/12/22 10:53:41;;;;;;;1.05;0.50;;;;;;;;;;5064649;28;20025;-82
2020/12/22 10:56:26;;;;;;;0.85;0.80;;;;;;;;;;5056714;28;20028;-81
2020/12/22 10:59:14;;;;;;;1.17;0.70;;;;;;;;;;5051352;28;20017;-82
2020/12/22 11:02:02;;;;;;;0.60;0.50;;;;;;;;;;5047245;28;20024;-81
2020/12/22 11:04:47;;;;;;;0.63;0.63;;;;;;;;;;5041606;28;20045;-81
2020/12/22 11:07:45;;;;;;;0.68;0.68;;;;;;;;;;5055425;28;20593;-81
2020/12/22 11:10:30;;;;;;;22.98;16.52;;;;;;;;;;5052170;28;20375;-80
2020/12/22 11:13:18;;;;;;;4.63;2.08;;;;;;;;;;5051097;28;20029;-81
2020/12/22 11:16:10;;;;;;;0.50;0.50;;;;;;;;;;5050671;28;20617;-81
2020/12/22 11:18:59;;;;;;;1.38;0.68;;;;;;;;;;5046957;28;20021;-81
2020/12/22 11:21:49;;;;;;;0.60;0.60;;;;;;;;;;5047875;28;20070;-81
2020/12/22 11:24:34;;;;;;;0.95;0.70;;;;;;;;;;5050771;28;20028;-81
2020/12/22 11:27:19;;;;;;;0.70;0.70;;;;;;;;;;5050626;28;20437;-81
2020/12/22 11:30:05;;;;;;;0.70;0.50;;;;;;;;;;5049298;28;20438;-81
2020/12/22 11:32:50;;;;;;;0.82;0.70;;;;;;;;;;5059063;28;20432;-81
2020/12/22 11:35:35;;;;;;;11.50;5.97;;;;;;;;;;5046119;28;20459;-81
2020/12/22 11:38:21;;;;;;;1.65;1.20;;;;;;;;;;5050365;28;20028;-81
2020/12/22 11:41:06;;;;;;;0.63;0.60;;;;;;;;;;5049663;28;20024;-81
2020/12/22 11:43:51;;;;;;;1.73;0.70;;;;;;;;;;5044816;28;20028;-81
2020/12/22 11:46:37;;;;;;;2.08;0.73;;;;;;;;;;5046462;28;20112;-81
2020/12/22 11:49:22;;;;;;;0.70;0.70;;;;;;;;;;5048403;28;20040;-82
2020/12/22 11:52:07;;;;;;;0.77;0.63;;;;;;;;;;5049360;28;20028;-84
2020/12/22 11:54:53;;;;;;;1.60;0.80;;;;;;;;;;5047516;28;20726;-82
2020/12/22 11:57:38;;;;;;;3.67;1.00;;;;;;;;;;5046155;28;20474;-78
2020/12/22 12:00:23;;;;;;;4.22;1.83;;;;;;;;;;5029509;28;20251;-77
2020/12/22 12:03:08;;;;;;;3.08;0.68;;;;;;;;;;5046619;28;20378;-79
2020/12/22 12:05:56;;;;;;;1.52;0.70;;;;;;;;;;5058719;28;20041;-79
2020/12/22 12:08:41;;;;;;;1.63;0.93;;;;;;;;;;5070055;28;20030;-79
2020/12/22 12:11:26;;;;;;;1.90;0.98;;;;;;;;;;5066028;28;20035;-78
2020/12/22 12:14:12;;;;;;;3.53;1.02;;;;;;;;;;5068841;28;20039;-79
2020/12/22 12:16:57;;;;;;;1.70;0.60;;;;;;;;;;5066802;28;20105;-79
2020/12/22 12:19:42;;;;;;;11.88;8.15;;;;;;;;;;5072286;28;20466;-79
2020/12/22 12:22:27;;;;;;;2.97;2.05;;;;;;;;;;5060734;28;20025;-79
2020/12/22 12:25:12;;;;;;;2.33;0.63;;;;;;;;;;5070491;28;20113;-79
2020/12/22 12:27:58;;;;;;;1.42;0.90;;;;;;;;;;5067251;28;20020;-79
2020/12/22 12:30:43;;;;;;;0.88;0.50;;;;;;;;;;5069347;28;20023;-80
2020/12/22 12:33:28;;;;;;;3.58;0.95;;;;;;;;;;5071807;28;20039;-80
2020/12/22 12:36:14;;;;;;;0.60;0.60;;;;;;;;;;5070065;28;20398;-80
2020/12/22 12:38:59;;;;;;;0.75;0.70;;;;;;;;;;5071601;28;20080;-80
2020/12/22 12:41:47;;;;;;;1.20;0.90;;;;;;;;;;5067505;28;20490;-79
2020/12/22 12:44:32;;;;;;;2.65;0.80;;;;;;;;;;5069687;28;20630;-78
2020/12/22 12:47:17;;;;;;;1.90;0.70;;;;;;;;;;5064786;28;20434;-78
2020/12/22 12:50:02;;;;;;;1.58;0.90;;;;;;;;;;5070397;28;20039;-78
2020/12/22 12:52:48;;;;;;;0.77;0.63;;;;;;;;;;5065716;28;20038;-76
2020/12/22 12:55:33;;;;;;;1.83;0.75;;;;;;;;;;5070589;28;20031;-79
2020/12/22 12:58:18;;;;;;;1.33;0.65;;;;;;;;;;5052506;28;20028;-80
2020/12/22 13:01:03;;;;;;;1.17;0.65;;;;;;;;;;5062890;28;20016;-80
2020/12/22 13:03:49;;;;;;;0.95;0.60;;;;;;;;;;5067336;28;20044;-79
2020/12/22 13:06:35;;;;;;;1.25;0.60;;;;;;;;;;5066342;28;20747;-78
2020/12/22 13:09:21;;;;;;;0.50;0.50;;;;;;;;;;5055962;28;20032;-80
2020/12/22 13:12:06;;;;;;;1.00;0.80;;;;;;;;;;5064183;28;20067;-79
2020/12/22 13:14:52;;;;;;;0.85;0.50;;;;;;;;;;5065494;28;20029;-80
2020/12/22 13:17:37;;;;;;;0.82;0.80;;;;;;;;;;5051762;28;20021;-80
2020/12/22 13:20:22;;;;;;;0.98;0.85;;;;;;;;;;5062801;28;20032;-81
2020/12/22 13:23:08;;;;;;;0.50;0.50;;;;;;;;;;5064464;28;20032;-78
2020/12/22 13:25:53;;;;;;;0.50;0.50;;;;;;;;;;5061818;28;20551;-80
2020/12/22 13:28:38;;;;;;;1.00;0.65;;;;;;;;;;5059656;28;20020;-79
2020/12/22 13:31:23;;;;;;;1.20;0.52;;;;;;;;;;5063282;28;20420;-79
2020/12/22 13:34:08;;;;;;;2.47;0.60;;;;;;;;;;5060096;28;20180;-76
2020/12/22 13:36:54;;;;;;;1.00;0.80;;;;;;;;;;5067794;28;20046;-79
2020/12/22 13:39:39;;;;;;;1.85;0.70;;;;;;;;;;5064603;28;20036;-79
2020/12/22 13:42:25;;;;;;;2.03;0.70;;;;;;;;;;5049114;28;20057;-79
2020/12/22 13:45:10;;;;;;;2.17;0.70;;;;;;;;;;5064592;28;20028;-79
2020/12/22 13:47:56;;;;;;;4.18;0.60;;;;;;;;;;5062026;28;20056;-80
2020/12/22 13:50:41;;;;;;;0.98;0.70;;;;;;;;;;5064532;28;20037;-78
2020/12/22 13:53:29;;;;;;;2.83;1.08;;;;;;;;;;5063497;28;20043;-78
2020/12/22 13:56:18;;;;;;;1.23;0.63;;;;;;;;;;5044221;28;20363;-80
2020/12/22 13:59:03;;;;;;;1.52;0.90;;;;;;;;;;5059267;28;20056;-79
2020/12/22 14:01:49;;;;;;;2.15;0.90;;;;;;;;;;5067606;28;20027;-80
2020/12/22 14:04:34;;;;;;;1.05;0.95;;;;;;;;;;5070543;28;20048;-79
2020/12/22 14:07:19;;;;;;;0.82;0.80;;;;;;;;;;5068130;28;20378;-78
2020/12/22 14:10:04;;;;;;;2.90;1.13;;;;;;;;;;5058176;28;20382;-81
2020/12/22 14:12:49;;;;;;;2.15;0.73;;;;;;;;;;5070904;28;20027;-77
2020/12/22 14:15:34;;;;;;;1.20;0.77;;;;;;;;;;5064017;28;20061;-79
2020/12/22 14:18:20;;;;;;;2.25;0.90;;;;;;;;;;5065935;28;20063;-80
2020/12/22 14:21:05;;;;;;;2.92;0.80;;;;;;;;;;5066199;28;20028;-80
2020/12/22 14:23:50;;;;;;;1.67;0.80;;;;;;;;;;5064874;28;20024;-81
2020/12/22 14:26:35;;;;;;;1.17;0.80;;;;;;;;;;5062801;28;20031;-80
2020/12/22 14:29:20;;;;;;;2.38;0.75;;;;;;;;;;5064136;28;20028;-81
2020/12/22 14:32:09;;;;;;;3.30;0.75;;;;;;;;;;5065741;28;20477;-80
2020/12/22 14:34:54;;;;;;;14.38;7.95;;;;;;;;;;5068266;28;20032;-80
2020/12/22 14:37:39;;;;;;;8.25;3.80;;;;;;;;;;5059038;28;20054;-80
2020/12/22 14:40:24;;;;;;;4.05;1.75;;;;;;;;;;5064625;28;20023;-79
2020/12/22 14:43:09;;;;;;;1.40;0.80;;;;;;;;;;5064990;28;20036;-78
2020/12/22 14:45:55;;;;;;;1.95;0.90;;;;;;;;;;5063608;28;20027;-79
2020/12/22 14:48:40;;;;;;;3.55;0.95;;;;;;;;;;5066724;28;20020;-79
2020/12/22 14:51:25;;;;;;;4.10;2.10;;;;;;;;;;5067254;28;20355;-79
2020/12/22 14:54:10;;;;;;;3.95;1.42;;;;;;;;;;5064727;28;20025;-79
2020/12/22 14:56:59;;;;;;;2.47;1.10;;;;;;;;;;5064691;28;20035;-80
2020/12/22 14:59:44;;;;;;;5.40;1.33;;;;;;;;;;5073581;28;20066;-78
2020/12/22 15:02:29;;;;;;;2.65;1.20;;;;;;;;;;5058289;28;20033;-79
2020/12/22 15:05:14;;;;;;;1.45;1.20;;;;;;;;;;5066360;28;20558;-78
2020/12/22 15:07:59;;;;;;;2.40;1.48;;;;;;;;;;5065102;28;20024;-78
2020/12/22 15:10:45;;;;;;;3.97;1.33;;;;;;;;;;5070528;28;20464;-78
2020/12/22 15:13:30;;;;;;;3.25;1.70;;;;;;;;;;5069026;28;20485;-78
2020/12/22 15:16:15;;;;;;;9.52;5.38;;;;;;;;;;5073527;28;20027;-77
2020/12/22 15:19:00;;;;;;;7.25;4.25;;;;;;;;;;5064098;28;20103;-78
2020/12/22 15:21:45;;;;;;;3.22;1.55;;;;;;;;;;5068351;28;20020;-79
2020/12/22 15:24:31;;;;;;;1.75;1.10;;;;;;;;;;5066240;28;20028;-79
2020/12/22 15:27:16;;;;;;;2.10;1.25;;;;;;;;;;5066839;28;20733;-78
2020/12/22 15:30:02;;;;;;;5.72;1.40;;;;;;;;;;5062789;28;20086;-78
2020/12/22 15:32:48;;;;;;;2.88;1.30;;;;;;;;;;5070641;28;20039;-78
2020/12/22 15:35:33;;;;;;;3.88;1.20;;;;;;;;;;5065932;28;20019;-78
2020/12/22 15:38:18;;;;;;;3.28;1.27;;;;;;;;;;5065413;28;20016;-76
2020/12/22 15:41:03;;;;;;;2.65;1.10;;;;;;;;;;5065540;28;20103;-76
2020/12/22 15:43:48;;;;;;;2.92;0.90;;;;;;;;;;5067290;28;20028;-76
2020/12/22 15:46:34;;;;;;;4.68;1.00;;;;;;;;;;5067610;28;20468;-76
2020/12/22 15:49:20;;;;;;;3.03;0.98;;;;;;;;;;5068101;28;20594;-76
2020/12/22 15:52:05;;;;;;;1.63;1.20;;;;;;;;;;5069993;28;20071;-75
2020/12/22 15:54:51;;;;;;;18.98;13.23;;;;;;;;;;5067058;28;20769;-75
2020/12/22 15:57:36;;;;;;;3.75;2.65;;;;;;;;;;5067384;28;20064;-77
2020/12/22 16:00:21;;;;;;;2.40;1.60;;;;;;;;;;5068279;28;20086;-77
2020/12/22 16:03:08;;;;;;;4.25;1.95;;;;;;;;;;5065943;28;20638;-75
2020/12/22 16:05:53;;;;;;;2.92;1.52;;;;;;;;;;5067977;28;20087;-74
2020/12/22 16:08:42;;;;;;;4.03;1.80;;;;;;;;;;5068105;28;20032;-78
2020/12/22 16:11:27;;;;;;;4.35;1.60;;;;;;;;;;5061020;28;20491;-80
2020/12/22 16:14:12;;;;;;;2.65;1.75;;;;;;;;;;5065389;28;20062;-78
2020/12/22 16:16:58;;;;;;;3.85;1.00;;;;;;;;;;5058770;28;20027;-79
2020/12/22 16:19:43;;;;;;;2.58;1.25;;;;;;;;;;5067321;28;20038;-78
2020/12/22 16:22:29;;;;;;;4.50;1.58;;;;;;;;;;5058999;28;20024;-79
2020/12/22 16:25:14;;;;;;;3.72;1.30;;;;;;;;;;5061098;28;20445;-79
2020/12/22 16:27:59;;;;;;;2.45;1.30;;;;;;;;;;5061863;28;20020;-79
2020/12/22 16:30:44;;;;;;;4.70;1.30;;;;;;;;;;5058901;28;20106;-79
2020/12/22 16:33:30;;;;;;;3.67;1.45;;;;;;;;;;5069205;28;20036;-80
2020/12/22 16:36:19;;;;;;;3.58;1.40;;;;;;;;;;5065492;28;20028;-79
2020/12/22 16:39:05;;;;;;;1.27;1.10;;;;;;;;;;5065646;28;20040;-78